createdAt,value
2023-01-02T00:01:36.349Z,13.56
2023-01-02T00:04:04.347Z,13.74
2023-01-02T00:06:34.529Z,13.73
2023-01-02T00:09:03.876Z,13.70
2023-01-02T00:11:31.819Z,13.68
2023-01-02T00:13:59.721Z,13.65
2023-01-02T00:16:27.708Z,13.56
2023-01-02T00:18:55.684Z,13.59
2023-01-02T00:21:23.617Z,13.64
2023-01-02T00:23:51.527Z,13.69
2023-01-02T00:26:20.848Z,13.73
2023-01-02T00:28:48.755Z,13.78
2023-01-02T00:31:16.759Z,13.84
2023-01-02T00:33:44.799Z,13.80
2023-01-02T00:36:13.341Z,13.70
2023-01-02T00:38:41.367Z,13.77
2023-01-02T00:41:09.256Z,13.77
2023-01-02T00:43:38.521Z,13.76
2023-01-02T00:46:11.671Z,13.75
2023-01-02T00:48:40.410Z,13.77
2023-01-02T00:51:08.403Z,13.78
2023-01-02T00:53:36.352Z,13.77
2023-01-02T00:56:04.347Z,13.76
2023-01-02T00:58:32.319Z,13.70
2023-01-02T01:01:01.708Z,13.70
2023-01-02T01:03:30.074Z,13.68
2023-01-02T01:05:58.011Z,13.66
2023-01-02T01:08:25.933Z,13.68
2023-01-02T01:10:53.869Z,13.69
2023-01-02T01:13:21.788Z,13.75
2023-01-02T01:15:49.767Z,13.77
2023-01-02T01:18:19.121Z,13.76
2023-01-02T01:20:47.661Z,13.73
2023-01-02T01:23:15.578Z,13.75
2023-01-02T01:25:43.507Z,13.69
2023-01-02T01:28:11.402Z,13.61
2023-01-02T01:30:39.274Z,13.53
2023-01-02T01:33:07.200Z,13.47
2023-01-02T01:35:36.458Z,13.39
2023-01-02T01:38:04.449Z,13.33
2023-01-02T01:40:38.745Z,13.24
2023-01-02T01:43:10.463Z,13.25
2023-01-02T01:45:38.381Z,13.23
2023-01-02T01:48:06.663Z,13.22
2023-01-02T01:50:36.508Z,13.22
2023-01-02T01:53:05.415Z,13.20
2023-01-02T01:55:34.452Z,13.20
2023-01-02T01:58:03.898Z,13.12
2023-01-02T02:00:31.863Z,13.27
2023-01-02T02:03:02.733Z,13.28
2023-01-02T02:05:30.973Z,13.36
2023-01-02T02:08:01.595Z,13.36
2023-01-02T02:10:29.584Z,13.37
2023-01-02T02:12:57.460Z,13.39
2023-01-02T02:15:28.616Z,13.40
2023-01-02T02:18:00.959Z,13.38
2023-01-02T02:20:33.335Z,13.41
2023-01-02T02:23:43.153Z,13.37
2023-01-02T02:26:38.261Z,13.24
2023-01-02T02:29:28.893Z,13.20
2023-01-02T02:31:59.858Z,13.13
2023-01-02T02:34:29.667Z,13.04
2023-01-02T02:36:59.313Z,12.95
2023-01-02T02:39:31.583Z,12.90
2023-01-02T02:42:02.871Z,12.83
2023-01-02T02:44:33.912Z,12.78
2023-01-02T02:47:04.864Z,12.72
2023-01-02T02:49:40.481Z,12.75
2023-01-02T02:52:14.056Z,12.73
2023-01-02T02:54:43.792Z,12.64
2023-01-02T02:57:12.455Z,12.67
2023-01-02T02:59:40.383Z,12.59
2023-01-02T03:02:09.817Z,12.57
2023-01-02T03:04:38.424Z,12.51
2023-01-02T03:07:12.932Z,12.51
2023-01-02T03:09:48.000Z,12.52
2023-01-02T03:12:21.077Z,12.49
2023-01-02T03:14:55.579Z,12.51
2023-01-02T03:17:28.438Z,12.51
2023-01-02T03:19:58.427Z,12.47
2023-01-02T03:22:27.643Z,12.49
2023-01-02T03:24:55.581Z,12.45
2023-01-02T03:27:24.828Z,12.42
2023-01-02T03:29:56.682Z,12.39
2023-01-02T03:32:27.993Z,12.38
2023-01-02T03:34:55.925Z,12.42
2023-01-02T03:37:26.143Z,12.38
2023-01-02T03:39:56.250Z,12.37
2023-01-02T03:42:26.623Z,12.33
2023-01-02T03:44:58.144Z,12.29
2023-01-02T03:47:28.976Z,12.27
2023-01-02T03:49:58.802Z,12.23
2023-01-02T03:52:26.755Z,12.20
2023-01-02T03:54:55.035Z,12.17
2023-01-02T03:57:25.800Z,12.07
2023-01-02T03:59:58.132Z,12.01
2023-01-02T04:02:29.728Z,12.08
2023-01-02T04:04:58.499Z,12.07
2023-01-02T04:07:28.503Z,12.05
2023-01-02T04:09:56.603Z,12.05
2023-01-02T04:12:24.873Z,12.06
2023-01-02T04:14:53.653Z,12.05
2023-01-02T04:17:21.745Z,12.05
2023-01-02T04:19:51.575Z,12.04
2023-01-02T04:22:21.721Z,12.03
2023-01-02T04:24:51.612Z,12.00
2023-01-02T04:27:21.393Z,11.97
2023-01-02T04:29:49.302Z,11.92
2023-01-02T04:32:19.555Z,11.90
2023-01-02T04:34:47.479Z,11.92
2023-01-02T04:37:28.991Z,11.85
2023-01-02T04:39:57.832Z,11.98
2023-01-02T04:42:25.971Z,12.01
2023-01-02T04:44:53.909Z,12.10
2023-01-02T04:47:22.146Z,12.02
2023-01-02T04:49:50.166Z,12.10
2023-01-02T04:52:18.089Z,12.10
2023-01-02T04:54:47.512Z,12.09
2023-01-02T04:57:15.504Z,12.09
2023-01-02T04:59:43.430Z,12.08
2023-01-02T05:02:11.617Z,12.13
2023-01-02T05:04:39.557Z,12.16
2023-01-02T05:07:07.566Z,12.19
2023-01-02T05:09:35.454Z,12.27
2023-01-02T05:12:05.113Z,12.29
2023-01-02T05:14:33.014Z,12.30
2023-01-02T05:17:00.937Z,12.29
2023-01-02T05:19:28.832Z,12.28
2023-01-02T05:22:14.129Z,12.26
2023-01-02T05:24:42.000Z,12.25
2023-01-02T05:27:11.260Z,12.21
2023-01-02T05:29:39.185Z,12.20
2023-01-02T05:32:07.393Z,12.13
2023-01-02T05:34:35.357Z,12.02
2023-01-02T05:37:03.280Z,11.95
2023-01-02T05:39:31.240Z,11.86
2023-01-02T05:41:59.214Z,11.80
2023-01-02T05:44:28.514Z,11.74
2023-01-02T05:46:56.509Z,11.68
2023-01-02T05:49:24.476Z,11.63
2023-01-02T05:51:52.383Z,11.59
2023-01-02T05:54:20.268Z,11.51
2023-01-02T05:56:48.237Z,11.49
2023-01-02T05:59:16.517Z,11.46
2023-01-02T06:01:46.046Z,11.30
2023-01-02T06:04:19.457Z,11.39
2023-01-02T06:06:49.552Z,11.34
2023-01-02T06:09:17.918Z,11.32
2023-01-02T06:11:45.859Z,11.28
2023-01-02T06:14:13.778Z,11.22
2023-01-02T06:16:41.830Z,11.18
2023-01-02T06:19:11.192Z,11.19
2023-01-02T06:21:39.073Z,11.09
2023-01-02T06:24:07.611Z,11.16
2023-01-02T06:26:35.738Z,11.15
2023-01-02T06:29:04.130Z,11.14
2023-01-02T06:31:33.390Z,11.15
2023-01-02T06:34:02.810Z,11.16
2023-01-02T06:36:32.945Z,11.17
2023-01-02T06:39:00.888Z,11.27
2023-01-02T06:41:28.808Z,11.26
2023-01-02T06:43:56.715Z,11.39
2023-01-02T06:46:24.867Z,11.47
2023-01-02T06:48:52.993Z,11.50
2023-01-02T06:51:21.692Z,11.48
2023-01-02T06:53:51.213Z,11.46
2023-01-02T06:56:20.359Z,11.44
2023-01-02T06:58:48.290Z,11.40
2023-01-02T07:01:17.090Z,11.14
2023-01-02T07:03:45.230Z,11.35
2023-01-02T07:06:14.969Z,11.33
2023-01-02T07:08:43.125Z,11.31
2023-01-02T07:11:14.294Z,11.26
2023-01-02T07:13:42.854Z,11.25
2023-01-02T07:16:11.622Z,11.22
2023-01-02T07:18:39.686Z,11.29
2023-01-02T07:21:08.169Z,11.30
2023-01-02T07:23:36.364Z,11.30
2023-01-02T07:26:05.073Z,11.29
2023-01-02T07:28:34.624Z,11.35
2023-01-02T07:31:03.283Z,11.42
2023-01-02T07:33:32.007Z,11.54
2023-01-02T07:36:00.161Z,11.61
2023-01-02T07:38:28.187Z,11.64
2023-01-02T07:40:56.216Z,11.64
2023-01-02T07:43:24.235Z,11.63
2023-01-02T07:45:53.718Z,11.61
2023-01-02T07:48:21.806Z,11.55
2023-01-02T07:50:49.819Z,11.50
2023-01-02T07:53:17.723Z,11.37
2023-01-02T07:55:45.783Z,11.38
2023-01-02T07:58:13.760Z,11.30
2023-01-02T08:00:41.853Z,11.24
2023-01-02T08:03:11.205Z,11.05
2023-01-02T08:05:39.340Z,10.85
2023-01-02T08:08:07.979Z,10.96
2023-01-02T08:10:37.179Z,10.94
2023-01-02T08:13:05.237Z,10.90
2023-01-02T08:15:33.165Z,10.86
2023-01-02T08:18:01.168Z,10.83
2023-01-02T08:20:30.504Z,10.78
2023-01-02T08:22:58.713Z,10.71
2023-01-02T08:25:26.729Z,10.70
2023-01-02T08:27:55.053Z,10.63
2023-01-02T08:30:23.075Z,10.59
2023-01-02T08:32:51.060Z,10.57
2023-01-02T08:35:34.301Z,10.54
2023-01-02T08:38:07.140Z,10.46
2023-01-02T08:40:37.457Z,10.57
2023-01-02T08:43:05.399Z,10.56
2023-01-02T08:45:33.359Z,10.55
2023-01-02T08:48:01.416Z,10.55
2023-01-02T08:50:49.302Z,10.49
2023-01-02T08:53:18.836Z,10.56
2023-01-02T08:55:46.794Z,10.56
2023-01-02T08:58:14.695Z,10.48
2023-01-02T09:00:42.713Z,10.41
2023-01-02T09:03:10.695Z,10.43
2023-01-02T09:05:38.652Z,10.36
2023-01-02T09:08:06.684Z,10.34
2023-01-02T09:10:35.977Z,10.35
2023-01-02T09:13:03.950Z,10.42
2023-01-02T09:15:32.539Z,10.45
2023-01-02T09:18:00.590Z,10.52
2023-01-02T09:20:28.463Z,10.58
2023-01-02T09:22:56.507Z,10.64
2023-01-02T09:25:24.772Z,10.72
2023-01-02T09:27:54.197Z,10.74
2023-01-02T09:30:22.127Z,10.73
2023-01-02T09:32:50.977Z,10.70
2023-01-02T09:35:20.902Z,10.63
2023-01-02T09:37:48.802Z,10.69
2023-01-02T09:40:16.775Z,10.67
2023-01-02T09:42:44.724Z,10.66
2023-01-02T09:45:14.387Z,10.60
2023-01-02T09:47:42.379Z,10.55
2023-01-02T09:50:12.393Z,10.51
2023-01-02T09:52:41.821Z,10.50
2023-01-02T09:55:15.954Z,10.39
2023-01-02T09:57:46.914Z,10.43
2023-01-02T10:00:18.100Z,10.47
2023-01-02T10:03:00.408Z,10.52
2023-01-02T10:05:51.544Z,10.39
2023-01-02T10:08:29.556Z,10.65
2023-01-02T10:11:05.864Z,10.75
2023-01-02T10:14:08.909Z,10.84
2023-01-02T10:16:26.879Z,10.91
2023-01-02T10:18:55.631Z,11.09
2023-01-02T10:21:25.986Z,11.20
2023-01-02T10:23:55.887Z,11.31
2023-01-02T10:26:25.248Z,11.41
2023-01-02T10:28:55.552Z,11.51
2023-01-02T10:31:26.343Z,11.50
2023-01-02T10:33:57.239Z,11.61
2023-01-02T10:36:27.674Z,11.62
2023-01-02T10:38:56.760Z,11.84
2023-01-02T10:41:24.675Z,12.17
2023-01-02T10:43:54.780Z,12.57
2023-01-02T10:46:24.270Z,12.87
2023-01-02T10:48:52.528Z,12.61
2023-01-02T10:51:20.521Z,12.75
2023-01-02T10:54:03.387Z,13.08
2023-01-02T10:56:32.059Z,13.56
2023-01-02T10:59:00.083Z,14.00
2023-01-02T11:01:29.599Z,14.46
2023-01-02T11:04:13.855Z,14.97
2023-01-02T11:06:53.177Z,15.39
2023-01-02T11:09:22.444Z,15.85
2023-01-02T11:11:51.028Z,16.21
2023-01-02T11:14:22.212Z,16.53
2023-01-02T11:16:51.593Z,16.86
2023-01-02T11:19:27.421Z,17.18
2023-01-02T11:21:57.562Z,17.50
2023-01-02T11:24:28.534Z,17.80
2023-01-02T11:26:56.809Z,18.08
2023-01-02T11:29:32.848Z,18.41
2023-01-02T11:32:02.980Z,18.71
2023-01-02T11:34:34.518Z,18.96
2023-01-02T11:37:07.836Z,19.22
2023-01-02T11:39:36.040Z,19.34
2023-01-02T11:42:34.900Z,19.25
2023-01-02T11:45:08.217Z,19.11
2023-01-02T11:47:38.662Z,18.96
2023-01-02T11:50:07.349Z,18.96
2023-01-02T11:52:41.326Z,19.06
2023-01-02T11:55:17.711Z,19.19
2023-01-02T11:57:48.824Z,19.33
2023-01-02T12:00:18.237Z,19.54
2023-01-02T12:02:50.831Z,19.75
2023-01-02T12:05:23.408Z,19.99
2023-01-02T12:07:55.711Z,20.35
2023-01-02T12:10:38.964Z,20.64
2023-01-02T12:13:15.550Z,20.87
2023-01-02T12:16:08.939Z,21.11
2023-01-02T12:19:05.564Z,21.11
2023-01-02T12:21:34.925Z,21.05
2023-01-02T12:24:22.120Z,20.87
2023-01-02T12:26:52.181Z,20.38
2023-01-02T12:29:47.177Z,20.28
2023-01-02T12:32:49.219Z,20.22
2023-01-02T12:35:50.318Z,19.99
2023-01-02T12:38:23.044Z,20.18
2023-01-02T12:41:03.430Z,20.45
2023-01-02T12:44:00.563Z,20.74
2023-01-02T12:46:40.473Z,20.79
2023-01-02T12:49:18.667Z,20.84
2023-01-02T12:51:50.746Z,20.83
2023-01-02T12:54:39.636Z,20.77
2023-01-02T12:57:11.804Z,20.80
2023-01-02T12:59:57.236Z,20.75
2023-01-02T13:02:42.428Z,20.85
2023-01-02T13:05:13.706Z,21.00
2023-01-02T13:07:44.545Z,21.04
2023-01-02T13:10:16.775Z,21.16
2023-01-02T13:12:44.805Z,21.33
2023-01-02T13:15:18.112Z,21.47
2023-01-02T13:17:51.552Z,21.56
2023-01-02T13:20:24.966Z,21.57
2023-01-02T13:22:58.900Z,21.57
2023-01-02T13:25:26.902Z,21.65
2023-01-02T13:27:55.179Z,21.67
2023-01-02T13:30:48.179Z,21.70
2023-01-02T13:33:22.334Z,21.75
2023-01-02T13:35:50.581Z,21.74
2023-01-02T13:38:19.910Z,21.82
2023-01-02T13:40:48.542Z,21.93
2023-01-02T13:43:18.058Z,22.08
2023-01-02T13:45:46.989Z,22.27
2023-01-02T13:48:20.778Z,22.41
2023-01-02T13:50:48.857Z,22.41
2023-01-02T13:53:31.086Z,22.32
2023-01-02T13:56:04.893Z,22.24
2023-01-02T13:58:49.192Z,22.32
2023-01-02T14:01:42.893Z,22.10
2023-01-02T14:04:39.929Z,21.35
2023-01-02T14:07:43.136Z,20.74
2023-01-02T14:10:31.159Z,20.40
2023-01-02T14:13:01.523Z,19.61
2023-01-02T14:15:29.636Z,18.78
2023-01-02T14:18:03.991Z,18.11
2023-01-02T14:20:32.531Z,17.57
2023-01-02T14:23:02.167Z,17.30
2023-01-02T14:25:31.893Z,17.13
2023-01-02T14:28:00.487Z,16.97
2023-01-02T14:30:32.629Z,17.03
2023-01-02T14:33:00.948Z,17.53
2023-01-02T14:35:31.855Z,17.58
2023-01-02T14:38:08.962Z,17.68
2023-01-02T14:40:39.565Z,18.18
2023-01-02T14:43:28.276Z,18.87
2023-01-02T14:45:58.594Z,19.44
2023-01-02T14:48:32.922Z,19.85
2023-01-02T14:51:03.398Z,20.25
2023-01-02T14:53:32.609Z,20.49
2023-01-02T14:56:03.764Z,20.74
2023-01-02T14:58:36.305Z,20.88
2023-01-02T15:01:04.819Z,20.62
2023-01-02T15:03:34.626Z,20.43
2023-01-02T15:06:05.033Z,20.34
2023-01-02T15:08:38.658Z,19.69
2023-01-02T15:11:35.128Z,18.77
2023-01-02T15:14:05.093Z,18.28
2023-01-02T15:16:35.050Z,17.74
2023-01-02T15:19:03.632Z,17.22
2023-01-02T15:21:31.654Z,16.85
2023-01-02T15:24:02.014Z,16.53
2023-01-02T15:26:35.162Z,16.12
2023-01-02T15:29:04.332Z,15.90
2023-01-02T15:31:32.372Z,15.56
2023-01-02T15:34:01.121Z,15.35
2023-01-02T15:36:34.130Z,15.17
2023-01-02T15:39:06.850Z,14.96
2023-01-02T15:41:41.408Z,14.86
2023-01-02T15:44:28.952Z,14.66
2023-01-02T15:46:57.470Z,14.55
2023-01-02T15:49:25.386Z,14.41
2023-01-02T15:51:55.061Z,14.25
2023-01-02T15:54:23.080Z,14.10
2023-01-02T15:56:52.747Z,13.94
2023-01-02T15:59:28.886Z,13.82
2023-01-02T16:01:56.990Z,13.69
2023-01-02T16:04:26.032Z,13.55
2023-01-02T16:06:54.215Z,13.42
2023-01-02T16:09:24.825Z,13.24
2023-01-02T16:11:54.886Z,13.13
2023-01-02T16:14:24.371Z,13.01
2023-01-02T16:16:53.841Z,12.93
2023-01-02T16:19:24.781Z,12.83
2023-01-02T16:21:53.520Z,12.68
2023-01-02T16:24:22.099Z,12.62
2023-01-02T16:26:50.119Z,12.47
2023-01-02T16:29:20.064Z,12.38
2023-01-02T16:31:56.493Z,12.04
2023-01-02T16:34:29.002Z,12.13
2023-01-02T16:37:31.469Z,11.94
2023-01-02T16:39:59.540Z,11.73
2023-01-02T16:42:37.954Z,11.60
2023-01-02T16:45:08.623Z,11.51
2023-01-02T16:47:38.817Z,11.38
2023-01-02T16:50:08.235Z,11.11
2023-01-02T16:52:37.270Z,11.19
2023-01-02T16:55:06.185Z,11.13
2023-01-02T16:57:34.239Z,11.07
2023-01-02T17:00:02.622Z,11.00
2023-01-02T17:02:32.181Z,10.95
2023-01-02T17:05:00.351Z,10.88
2023-01-02T17:07:28.367Z,10.81
2023-01-02T17:09:56.318Z,10.74
2023-01-02T17:12:24.326Z,10.69
2023-01-02T17:14:52.355Z,10.64
2023-01-02T17:17:20.489Z,10.54
2023-01-02T17:19:49.895Z,10.48
2023-01-02T17:22:17.941Z,10.42
2023-01-02T17:24:45.886Z,10.36
2023-01-02T17:27:13.793Z,10.30
2023-01-02T17:29:42.575Z,10.24
2023-01-02T17:32:10.529Z,10.20
2023-01-02T17:34:38.507Z,10.15
2023-01-02T17:37:08.023Z,10.07
2023-01-02T17:39:36.065Z,10.01
2023-01-02T17:42:04.081Z,9.93
2023-01-02T17:44:32.123Z,9.90
2023-01-02T17:49:48.058Z,9.80
2023-01-02T17:52:17.371Z,9.73
2023-01-02T17:54:48.581Z,9.68
2023-01-02T17:57:20.890Z,9.62
2023-01-02T17:59:48.877Z,9.56
2023-01-02T18:02:17.574Z,9.46
2023-01-02T18:04:52.637Z,9.53
2023-01-02T18:07:24.394Z,9.45
2023-01-02T18:10:07.975Z,9.39
2023-01-02T18:12:38.082Z,9.29
2023-01-02T18:15:11.759Z,9.27
2023-01-02T18:17:39.886Z,9.25
2023-01-02T18:20:14.839Z,9.23
2023-01-02T18:22:48.870Z,9.16
2023-01-02T18:25:20.199Z,9.06
2023-01-02T18:27:48.529Z,9.17
2023-01-02T18:30:19.639Z,9.16
2023-01-02T18:32:47.648Z,9.13
2023-01-02T18:35:54.898Z,9.05
2023-01-02T18:38:15.613Z,9.07
2023-01-02T18:40:43.626Z,9.04
2023-01-02T18:43:19.368Z,9.03
2023-01-02T18:45:48.198Z,9.03
2023-01-02T18:48:17.714Z,9.01
2023-01-02T18:50:46.554Z,8.89
2023-01-02T18:53:20.582Z,8.96
2023-01-02T18:55:48.677Z,8.89
2023-01-02T18:58:40.933Z,8.96
2023-01-02T19:01:20.305Z,8.90
2023-01-02T19:03:49.317Z,8.94
2023-01-02T19:06:18.431Z,8.95
2023-01-02T19:08:47.932Z,8.97
2023-01-02T19:11:31.705Z,9.02
2023-01-02T19:13:59.625Z,9.10
2023-01-02T19:16:27.757Z,9.15
2023-01-02T19:18:56.296Z,9.23
2023-01-02T19:21:27.854Z,9.25
2023-01-02T19:23:59.270Z,9.27
2023-01-02T19:26:30.651Z,9.20
2023-01-02T19:29:00.123Z,9.16
2023-01-02T19:31:31.793Z,9.16
2023-01-02T19:34:01.547Z,9.06
2023-01-02T19:36:36.738Z,9.12
2023-01-02T19:39:19.550Z,9.06
2023-01-02T19:42:05.003Z,9.04
2023-01-02T19:44:33.084Z,8.91
2023-01-02T19:47:01.033Z,8.93
2023-01-02T19:49:29.063Z,9.04
2023-01-02T19:51:56.977Z,9.13
2023-01-02T19:54:26.399Z,9.20
2023-01-02T19:56:54.621Z,9.27
2023-01-02T19:59:22.852Z,9.42
2023-01-02T20:01:51.050Z,9.53
2023-01-02T20:04:19.213Z,9.64
2023-01-02T20:06:47.143Z,9.75
2023-01-02T20:09:16.456Z,9.85
2023-01-02T20:12:07.559Z,9.91
2023-01-02T20:14:38.198Z,9.89
2023-01-02T20:17:06.343Z,9.99
2023-01-02T20:19:34.231Z,10.03
2023-01-02T20:22:02.250Z,10.07
2023-01-02T20:24:30.370Z,10.09
2023-01-02T20:27:00.443Z,10.14
2023-01-02T20:29:28.542Z,10.17
2023-01-02T20:31:59.191Z,10.15
2023-01-02T20:34:27.216Z,10.25
2023-01-02T20:36:55.171Z,10.29
2023-01-02T20:39:23.138Z,10.31
2023-01-02T20:41:51.076Z,10.39
2023-01-02T20:44:20.480Z,10.40
2023-01-02T20:46:48.716Z,10.44
2023-01-02T20:49:17.658Z,10.51
2023-01-02T20:51:52.040Z,10.57
2023-01-02T20:54:20.012Z,10.60
2023-01-02T20:56:47.960Z,10.63
2023-01-02T20:59:15.934Z,10.68
2023-01-02T21:01:45.399Z,10.69
2023-01-02T21:04:13.497Z,10.71
2023-01-02T21:06:42.110Z,10.71
2023-01-02T21:09:10.076Z,10.72
2023-01-02T21:11:38.190Z,10.73
2023-01-02T21:14:06.088Z,10.74
2023-01-02T21:16:34.263Z,10.74
2023-01-02T21:19:03.790Z,10.72
2023-01-02T21:21:31.756Z,10.72
2023-01-02T21:23:59.732Z,10.74
2023-01-02T21:26:27.850Z,10.74
2023-01-02T21:28:55.813Z,10.74
2023-01-02T21:31:23.784Z,10.74
2023-01-02T21:33:51.797Z,10.69
2023-01-02T21:36:21.146Z,10.48
2023-01-02T21:38:49.089Z,10.69
2023-01-02T21:41:34.424Z,10.65
2023-01-02T21:44:02.318Z,10.65
2023-01-02T21:46:30.329Z,10.62
2023-01-02T21:48:58.349Z,10.57
2023-01-02T21:51:32.726Z,10.52
2023-01-02T21:54:01.038Z,10.49
2023-01-02T21:56:29.350Z,10.44
2023-01-02T21:58:57.721Z,10.39
2023-01-02T22:01:26.123Z,10.30
2023-01-02T22:03:57.262Z,10.30
2023-01-02T22:06:25.792Z,10.26
2023-01-02T22:08:55.090Z,10.24
2023-01-02T22:11:40.332Z,10.20
2023-01-02T22:14:08.257Z,10.16
2023-01-02T22:16:36.229Z,10.05
2023-01-02T22:19:04.252Z,10.10
2023-01-02T22:21:32.420Z,10.08
2023-01-02T22:24:01.809Z,10.08
2023-01-02T22:26:29.749Z,10.08
2023-01-02T22:28:57.713Z,10.05
2023-01-02T22:31:25.862Z,10.05
2023-01-02T22:33:54.963Z,10.03
2023-01-02T22:36:22.890Z,10.01
2023-01-02T22:39:26.038Z,9.97
2023-01-02T22:41:41.269Z,9.93
2023-01-02T22:44:13.427Z,9.90
2023-01-02T22:46:42.748Z,9.89
2023-01-02T22:49:11.487Z,9.87
2023-01-02T22:52:06.125Z,9.86
2023-01-02T22:54:27.306Z,9.84
2023-01-02T22:56:56.626Z,9.85
2023-01-02T22:59:24.529Z,9.85
2023-01-02T23:01:52.660Z,9.88
2023-01-02T23:04:21.734Z,9.90
2023-01-02T23:07:14.094Z,9.95
2023-01-02T23:09:37.677Z,9.97
2023-01-02T23:12:07.448Z,9.94
2023-01-02T23:14:35.386Z,9.93
2023-01-02T23:17:20.759Z,9.89
2023-01-02T23:19:48.767Z,9.87
2023-01-02T23:22:16.700Z,9.83
2023-01-02T23:24:44.621Z,9.80
2023-01-02T23:27:14.036Z,9.82
2023-01-02T23:29:41.998Z,9.83
2023-01-02T23:32:11.263Z,9.82
2023-01-02T23:34:39.286Z,9.85
2023-01-02T23:37:07.338Z,9.86
2023-01-02T23:39:35.265Z,9.66
2023-01-02T23:42:03.517Z,9.82
2023-01-02T23:44:32.826Z,9.89
2023-01-02T23:47:05.479Z,9.89
2023-01-02T23:49:36.819Z,9.88
2023-01-02T23:52:05.579Z,9.86
2023-01-02T23:54:33.652Z,9.91
2023-01-02T23:57:01.569Z,9.91
2023-01-02T23:59:29.509Z,9.93
